createdAt,value
2019-05-25T00:01:14.191Z,9.93
2019-05-25T00:03:40.031Z,10.20
2019-05-25T00:06:05.982Z,10.30
2019-05-25T00:08:31.809Z,10.57
2019-05-25T00:10:57.674Z,10.43
2019-05-25T00:13:23.519Z,11.07
2019-05-25T00:15:49.367Z,10.53
2019-05-25T00:18:15.216Z,10.40
2019-05-25T00:20:41.045Z,10.20
2019-05-25T00:23:06.909Z,10.60
2019-05-25T00:25:32.761Z,11.97
2019-05-25T00:27:58.606Z,11.00
2019-05-25T00:30:24.475Z,10.37
2019-05-25T00:32:50.336Z,10.77
2019-05-25T00:35:16.206Z,12.23
2019-05-25T00:37:42.090Z,10.30
2019-05-25T00:40:08.213Z,11.97
2019-05-25T00:42:34.070Z,10.60
2019-05-25T00:44:59.915Z,9.43
2019-05-25T00:47:25.775Z,12.67
2019-05-25T00:49:51.611Z,12.47
2019-05-25T00:52:17.467Z,10.60
2019-05-25T00:54:43.300Z,11.63
2019-05-25T00:57:09.234Z,9.70
2019-05-25T00:59:35.059Z,10.43
2019-05-25T01:02:00.893Z,10.50
2019-05-25T01:04:26.763Z,9.37
2019-05-25T01:06:52.599Z,10.70
2019-05-25T01:09:18.463Z,9.63
2019-05-25T01:11:44.299Z,10.43
2019-05-25T01:14:10.158Z,11.17
2019-05-25T01:16:36.095Z,9.63
2019-05-25T01:19:02.042Z,10.40
2019-05-25T01:21:28.082Z,9.60
2019-05-25T01:23:53.944Z,11.23
2019-05-25T01:26:19.788Z,12.93
2019-05-25T01:28:45.649Z,10.30
2019-05-25T01:31:11.460Z,10.70
2019-05-25T01:33:37.320Z,10.20
2019-05-25T01:36:03.266Z,11.77
2019-05-25T01:38:29.120Z,11.97
2019-05-25T01:40:54.966Z,10.37
2019-05-25T01:43:20.799Z,11.20
2019-05-25T01:45:46.669Z,10.80
2019-05-25T01:48:12.508Z,10.93
2019-05-25T01:50:38.361Z,12.10
2019-05-25T01:53:04.196Z,13.60
2019-05-25T01:55:30.269Z,10.67
2019-05-25T01:57:56.113Z,10.27
2019-05-25T02:00:22.265Z,10.87
2019-05-25T02:02:48.158Z,18.83
2019-05-25T02:05:14.288Z,12.03
2019-05-25T02:07:40.122Z,20.70
2019-05-25T02:10:06.881Z,10.30
2019-05-25T02:12:32.733Z,9.57
2019-05-25T02:14:58.605Z,14.43
2019-05-25T02:17:24.453Z,10.17
2019-05-25T02:19:50.333Z,9.87
2019-05-25T02:22:16.248Z,11.63
2019-05-25T02:24:42.476Z,9.87
2019-05-25T02:27:08.325Z,10.60
2019-05-25T02:29:34.318Z,11.07
2019-05-25T02:32:00.155Z,10.90
2019-05-25T02:34:26.015Z,11.93
2019-05-25T02:36:51.866Z,11.23
2019-05-25T02:39:17.713Z,10.63
2019-05-25T02:41:43.678Z,10.93
2019-05-25T02:44:09.655Z,10.67
2019-05-25T02:46:35.531Z,10.27
2019-05-25T02:49:01.375Z,10.00
2019-05-25T02:51:27.245Z,11.40
2019-05-25T02:53:53.061Z,10.17
2019-05-25T02:56:18.901Z,11.57
2019-05-25T02:58:44.736Z,11.80
2019-05-25T03:01:10.599Z,10.40
2019-05-25T03:03:36.435Z,9.47
2019-05-25T03:06:04.254Z,12.00
2019-05-25T03:08:30.361Z,14.17
2019-05-25T03:10:56.344Z,10.63
2019-05-25T03:13:22.284Z,12.23
2019-05-25T03:15:48.317Z,10.00
2019-05-25T03:18:14.247Z,11.27
2019-05-25T03:20:40.208Z,10.83
2019-05-25T03:23:06.103Z,11.63
2019-05-25T03:25:31.962Z,10.27
2019-05-25T03:27:57.870Z,10.33
2019-05-25T03:30:32.166Z,9.57
2019-05-25T03:32:58.054Z,10.17
2019-05-25T03:35:23.897Z,12.03
2019-05-25T03:37:49.762Z,10.17
2019-05-25T03:40:15.689Z,9.77
2019-05-25T03:42:41.550Z,10.03
2019-05-25T03:45:07.707Z,12.57
2019-05-25T03:47:33.566Z,10.37
2019-05-25T03:49:59.390Z,11.43
2019-05-25T03:52:25.258Z,10.53
2019-05-25T03:54:51.108Z,12.00
2019-05-25T03:57:16.955Z,11.13
2019-05-25T03:59:42.881Z,11.30
2019-05-25T04:02:08.731Z,10.50
2019-05-25T04:04:34.612Z,14.43
2019-05-25T04:07:00.470Z,11.13
2019-05-25T04:09:26.315Z,11.90
2019-05-25T04:11:52.141Z,12.93
2019-05-25T04:14:17.989Z,10.73
2019-05-25T04:16:43.835Z,11.03
2019-05-25T04:19:09.683Z,11.63
2019-05-25T04:21:35.529Z,10.07
2019-05-25T04:24:01.395Z,12.23
2019-05-25T04:26:27.676Z,12.53
2019-05-25T04:28:56.490Z,11.50
2019-05-25T04:31:25.619Z,11.97
2019-05-25T04:33:51.682Z,11.87
2019-05-25T04:36:17.791Z,12.63
2019-05-25T04:38:43.668Z,14.60
2019-05-25T04:41:09.509Z,12.47
2019-05-25T04:43:35.342Z,12.83
2019-05-25T04:46:01.220Z,12.17
2019-05-25T04:48:27.048Z,12.47
2019-05-25T04:50:52.910Z,10.23
2019-05-25T04:53:18.893Z,11.67
2019-05-25T04:55:44.738Z,14.97
2019-05-25T04:58:10.598Z,12.43
2019-05-25T05:00:36.478Z,11.20
2019-05-25T05:03:02.309Z,11.90
2019-05-25T05:05:28.166Z,12.10
2019-05-25T05:07:54.062Z,11.43
2019-05-25T05:10:19.920Z,10.30
2019-05-25T05:12:45.787Z,11.07
2019-05-25T05:15:11.853Z,12.50
2019-05-25T05:17:38.015Z,11.17
2019-05-25T05:20:05.784Z,11.23
2019-05-25T05:22:31.638Z,11.97
2019-05-25T05:24:57.491Z,11.93
2019-05-25T05:27:23.431Z,13.07
2019-05-25T05:29:49.323Z,12.87
2019-05-25T05:32:26.982Z,13.20
2019-05-25T05:34:42.908Z,12.27
2019-05-25T05:37:09.374Z,12.70
2019-05-25T05:39:35.313Z,12.77
2019-05-25T05:42:01.326Z,12.87
2019-05-25T05:44:27.302Z,11.77
2019-05-25T05:46:55.557Z,12.87
2019-05-25T05:49:22.815Z,12.53
2019-05-25T05:51:48.677Z,15.53
2019-05-25T05:54:15.569Z,13.80
2019-05-25T05:56:41.424Z,13.03
2019-05-25T05:59:07.253Z,13.07
2019-05-25T06:01:33.183Z,14.80
2019-05-25T06:03:59.107Z,13.13
2019-05-25T06:06:24.925Z,13.97
2019-05-25T06:08:50.782Z,16.80
2019-05-25T06:11:16.660Z,15.10
2019-05-25T06:13:42.501Z,15.40
2019-05-25T06:16:08.359Z,15.13
2019-05-25T06:18:34.195Z,13.93
2019-05-25T06:21:00.065Z,15.23
2019-05-25T06:23:25.908Z,14.67
2019-05-25T06:25:52.578Z,14.60
2019-05-25T06:28:22.369Z,13.30
2019-05-25T06:30:47.977Z,13.60
2019-05-25T06:33:13.828Z,14.10
2019-05-25T06:35:40.099Z,15.37
2019-05-25T06:38:06.071Z,12.87
2019-05-25T06:40:32.029Z,13.30
2019-05-25T06:42:57.895Z,14.13
2019-05-25T06:45:23.724Z,12.20
2019-05-25T06:47:49.603Z,13.00
2019-05-25T06:50:15.741Z,13.53
2019-05-25T06:52:41.645Z,12.20
2019-05-25T06:55:07.712Z,13.57
2019-05-25T06:57:42.635Z,13.10
2019-05-25T07:00:03.866Z,12.63
2019-05-25T07:02:29.741Z,12.63
2019-05-25T07:04:55.722Z,11.77
2019-05-25T07:07:21.593Z,12.67
2019-05-25T07:09:47.466Z,12.37
2019-05-25T07:12:13.320Z,12.53
2019-05-25T07:14:39.291Z,11.23
2019-05-25T07:17:05.243Z,11.73
2019-05-25T07:19:31.112Z,11.77
2019-05-25T07:21:56.978Z,11.03
2019-05-25T07:24:22.840Z,11.57
2019-05-25T07:26:48.671Z,11.20
2019-05-25T07:29:14.544Z,10.73
2019-05-25T07:31:40.375Z,11.73
2019-05-25T07:34:06.223Z,16.60
2019-05-25T07:36:32.247Z,10.33
2019-05-25T07:38:58.139Z,9.83
2019-05-25T07:41:24.023Z,10.10
2019-05-25T07:43:49.914Z,9.67
2019-05-25T07:46:17.254Z,9.60
2019-05-25T07:48:43.306Z,8.90
2019-05-25T07:51:09.196Z,9.43
2019-05-25T07:53:35.085Z,9.33
2019-05-25T07:56:00.943Z,9.73
2019-05-25T07:58:26.803Z,9.60
2019-05-25T08:00:52.660Z,8.47
2019-05-25T08:03:18.530Z,10.00
2019-05-25T08:05:44.414Z,8.43
2019-05-25T08:08:10.278Z,7.90
2019-05-25T08:10:36.159Z,7.40
2019-05-25T08:13:02.013Z,8.17
2019-05-25T08:15:27.893Z,8.33
2019-05-25T08:17:53.752Z,7.07
2019-05-25T08:20:19.794Z,6.60
2019-05-25T08:22:45.753Z,7.60
2019-05-25T08:25:12.028Z,7.10
2019-05-25T08:27:37.920Z,6.67
2019-05-25T08:30:05.812Z,6.77
2019-05-25T08:32:31.688Z,7.03
2019-05-25T08:34:57.545Z,6.10
2019-05-25T08:37:23.431Z,5.70
2019-05-25T08:39:49.271Z,6.77
2019-05-25T08:42:15.128Z,7.33
2019-05-25T08:44:40.995Z,6.57
2019-05-25T08:47:06.843Z,6.33
2019-05-25T08:49:32.737Z,5.83
2019-05-25T08:51:58.605Z,6.73
2019-05-25T08:54:24.612Z,5.77
2019-05-25T08:56:50.506Z,7.80
2019-05-25T08:59:16.357Z,6.67
2019-05-25T09:01:42.321Z,8.00
2019-05-25T09:04:08.256Z,6.77
2019-05-25T09:06:34.204Z,7.03
2019-05-25T09:09:00.050Z,7.07
2019-05-25T09:11:26.030Z,7.00
2019-05-25T09:13:51.932Z,7.00
2019-05-25T09:16:17.761Z,7.13
2019-05-25T09:18:43.617Z,7.30
2019-05-25T09:21:09.513Z,7.27
2019-05-25T09:23:35.358Z,7.53
2019-05-25T09:26:01.327Z,7.97
2019-05-25T09:28:27.222Z,10.43
2019-05-25T09:30:53.214Z,7.20
2019-05-25T09:33:19.086Z,6.87
2019-05-25T09:35:44.961Z,6.87
2019-05-25T09:38:10.824Z,8.70
2019-05-25T09:40:36.680Z,8.90
2019-05-25T09:43:02.620Z,7.53
2019-05-25T09:45:30.477Z,8.80
2019-05-25T09:47:56.510Z,6.90
2019-05-25T09:50:22.345Z,8.13
2019-05-25T09:52:48.272Z,7.10
2019-05-25T09:55:15.302Z,7.03
2019-05-25T09:57:41.987Z,6.50
2019-05-25T10:00:09.478Z,5.83
2019-05-25T10:02:35.444Z,8.83
2019-05-25T10:05:01.411Z,9.10
2019-05-25T10:07:27.274Z,5.33
2019-05-25T10:09:53.147Z,7.30
2019-05-25T10:12:19.016Z,7.10
2019-05-25T10:14:44.883Z,6.03
2019-05-25T10:17:10.752Z,4.80
2019-05-25T10:19:36.621Z,4.90
2019-05-25T10:22:03.615Z,5.40
2019-05-25T10:24:29.466Z,6.33
2019-05-25T10:26:55.317Z,4.90
2019-05-25T10:29:35.983Z,6.53
2019-05-25T10:31:49.108Z,7.20
2019-05-25T10:34:14.986Z,6.07
2019-05-25T10:36:40.915Z,7.10
2019-05-25T10:39:06.772Z,6.33
2019-05-25T10:41:32.656Z,5.73
2019-05-25T10:43:58.510Z,5.70
2019-05-25T10:46:24.489Z,4.63
2019-05-25T10:48:50.405Z,5.33
2019-05-25T10:51:16.287Z,6.17
2019-05-25T10:53:42.135Z,6.57
2019-05-25T10:56:07.992Z,7.53
2019-05-25T10:58:33.824Z,6.20
2019-05-25T11:00:59.691Z,6.87
2019-05-25T11:03:25.548Z,6.70
2019-05-25T11:05:51.404Z,4.53
2019-05-25T11:08:17.257Z,6.20
2019-05-25T11:10:43.129Z,5.93
2019-05-25T11:13:08.960Z,6.40
2019-05-25T11:15:34.792Z,6.47
2019-05-25T11:18:00.632Z,6.37
2019-05-25T11:20:26.494Z,7.20
2019-05-25T11:22:52.322Z,6.17
2019-05-25T11:25:18.176Z,6.50
2019-05-25T11:27:44.012Z,6.67
2019-05-25T11:30:10.715Z,6.20
2019-05-25T11:32:36.666Z,9.00
2019-05-25T11:35:05.016Z,9.20
2019-05-25T11:37:30.899Z,9.40
2019-05-25T11:39:56.731Z,6.37
2019-05-25T11:42:22.642Z,7.57
2019-05-25T11:44:48.531Z,6.23
2019-05-25T11:47:14.416Z,7.70
2019-05-25T11:49:40.251Z,6.10
2019-05-25T11:52:06.122Z,6.50
2019-05-25T11:54:31.944Z,6.73
2019-05-25T11:56:57.828Z,8.20
2019-05-25T11:59:23.695Z,7.70
2019-05-25T12:01:49.564Z,8.50
2019-05-25T12:04:15.436Z,9.13
2019-05-25T12:06:41.287Z,8.07
2019-05-25T12:09:07.319Z,7.80
2019-05-25T12:11:33.296Z,7.23
2019-05-25T12:13:59.124Z,8.63
2019-05-25T12:16:24.997Z,8.83
2019-05-25T12:18:50.872Z,8.13
2019-05-25T12:21:16.703Z,7.03
2019-05-25T12:23:42.600Z,8.87
2019-05-25T12:26:08.455Z,9.17
2019-05-25T12:28:34.320Z,8.90
2019-05-25T12:31:00.173Z,9.57
2019-05-25T12:33:26.262Z,8.37
2019-05-25T12:35:52.426Z,8.47
2019-05-25T12:38:18.292Z,7.97
2019-05-25T12:40:53.315Z,8.90
2019-05-25T12:43:11.898Z,7.50
2019-05-25T12:45:37.755Z,8.00
2019-05-25T12:48:03.849Z,9.30
2019-05-25T12:50:29.668Z,8.40
2019-05-25T12:52:55.549Z,7.80
2019-05-25T12:55:21.448Z,7.07
2019-05-25T12:57:47.325Z,8.53
2019-05-25T13:00:15.937Z,7.73
2019-05-25T13:02:40.956Z,8.50
2019-05-25T13:05:07.515Z,6.80
2019-05-25T13:07:33.371Z,7.83
2019-05-25T13:09:59.233Z,7.47
2019-05-25T13:12:25.202Z,9.23
2019-05-25T13:14:51.061Z,8.80
2019-05-25T13:17:16.933Z,8.70
2019-05-25T13:19:42.822Z,7.80
2019-05-25T13:22:08.686Z,7.20
2019-05-25T13:24:34.539Z,6.13
2019-05-25T13:27:00.503Z,7.50
2019-05-25T13:29:26.327Z,6.23
2019-05-25T13:31:52.165Z,8.50
2019-05-25T13:34:18.059Z,7.17
2019-05-25T13:36:43.931Z,6.23
2019-05-25T13:39:09.757Z,5.53
2019-05-25T13:41:35.604Z,5.10
2019-05-25T13:44:01.460Z,4.30
2019-05-25T13:46:27.618Z,6.17
2019-05-25T13:48:53.463Z,3.70
2019-05-25T13:51:19.634Z,5.27
2019-05-25T13:53:45.471Z,4.03
2019-05-25T13:56:11.358Z,3.53
2019-05-25T13:58:39.137Z,3.60
2019-05-25T14:01:04.986Z,3.90
2019-05-25T14:03:30.816Z,4.17
2019-05-25T14:05:56.689Z,3.73
2019-05-25T14:08:22.541Z,3.70
2019-05-25T14:10:48.410Z,3.37
2019-05-25T14:13:14.246Z,3.97
2019-05-25T14:15:40.144Z,6.70
2019-05-25T14:18:05.982Z,13.43
2019-05-25T14:20:31.843Z,4.87
2019-05-25T14:22:57.677Z,9.20
2019-05-25T14:25:23.526Z,5.30
2019-05-25T14:27:49.360Z,10.13
2019-05-25T14:30:15.666Z,5.20
2019-05-25T14:32:41.491Z,5.80
2019-05-25T14:35:07.649Z,4.90
2019-05-25T14:37:33.540Z,4.40
2019-05-25T14:39:59.587Z,5.50
2019-05-25T14:42:25.464Z,4.40
2019-05-25T14:44:51.388Z,4.80
2019-05-25T14:47:17.607Z,8.17
2019-05-25T14:49:43.460Z,5.37
2019-05-25T14:52:11.739Z,6.20
2019-05-25T14:54:37.930Z,8.13
2019-05-25T14:57:04.767Z,4.30
2019-05-25T14:59:32.733Z,7.37
2019-05-25T15:02:02.452Z,6.10
2019-05-25T15:04:26.852Z,5.83
2019-05-25T15:06:52.707Z,11.83
2019-05-25T15:09:18.665Z,5.10
2019-05-25T15:11:44.531Z,4.90
2019-05-25T15:14:10.428Z,4.87
2019-05-25T15:16:36.390Z,4.63
2019-05-25T15:19:02.755Z,4.50
2019-05-25T15:21:28.620Z,5.23
2019-05-25T15:23:54.490Z,4.70
2019-05-25T15:26:20.327Z,4.40
2019-05-25T15:28:46.238Z,4.77
2019-05-25T15:31:12.086Z,9.03
2019-05-25T15:33:37.963Z,4.43
2019-05-25T15:36:03.847Z,5.07
2019-05-25T15:38:29.687Z,4.77
2019-05-25T15:40:55.560Z,4.40
2019-05-25T15:43:21.388Z,4.63
2019-05-25T15:45:47.225Z,5.43
2019-05-25T15:48:13.071Z,7.53
2019-05-25T15:50:38.939Z,4.17
2019-05-25T15:53:04.998Z,3.93
2019-05-25T15:55:30.872Z,3.70
2019-05-25T15:57:56.744Z,3.90
2019-05-25T16:00:43.085Z,4.20
2019-05-25T16:03:09.064Z,3.30
2019-05-25T16:05:34.916Z,3.40
2019-05-25T16:08:01.659Z,4.20
2019-05-25T16:10:27.644Z,3.73
2019-05-25T16:12:53.516Z,4.60
2019-05-25T16:15:26.539Z,4.23
2019-05-25T16:17:52.458Z,4.10
2019-05-25T16:20:21.036Z,4.10
2019-05-25T16:22:46.901Z,4.70
2019-05-25T16:25:12.770Z,3.80
2019-05-25T16:27:38.629Z,4.30
2019-05-25T16:30:07.779Z,4.53
2019-05-25T16:32:33.631Z,4.23
2019-05-25T16:34:59.487Z,4.97
2019-05-25T16:37:25.441Z,4.50
2019-05-25T16:39:51.329Z,6.53
2019-05-25T16:42:17.167Z,4.40
2019-05-25T16:44:43.015Z,4.43
2019-05-25T16:47:08.861Z,3.63
2019-05-25T16:49:34.736Z,3.60
2019-05-25T16:52:00.567Z,4.57
2019-05-25T16:54:26.547Z,4.20
2019-05-25T16:56:52.409Z,4.23
2019-05-25T16:59:18.234Z,4.23
2019-05-25T17:01:48.526Z,5.70
2019-05-25T17:04:11.992Z,3.93
2019-05-25T17:06:37.976Z,4.27
2019-05-25T17:09:05.332Z,3.90
2019-05-25T17:11:31.413Z,4.07
2019-05-25T17:13:57.285Z,4.27
2019-05-25T17:16:23.146Z,3.97
2019-05-25T17:18:48.983Z,4.20
2019-05-25T17:21:14.829Z,3.97
2019-05-25T17:23:40.710Z,3.90
2019-05-25T17:26:06.596Z,4.30
2019-05-25T17:28:32.459Z,3.93
2019-05-25T17:30:58.340Z,4.00
2019-05-25T17:33:24.211Z,3.60
2019-05-25T17:35:50.189Z,3.93
2019-05-25T17:38:16.252Z,4.77
2019-05-25T17:40:42.077Z,3.23
2019-05-25T17:43:08.047Z,3.73
2019-05-25T17:45:34.003Z,5.33
2019-05-25T17:47:59.860Z,3.20
2019-05-25T17:50:25.721Z,3.30
2019-05-25T17:52:51.588Z,3.97
2019-05-25T17:55:17.554Z,3.40
2019-05-25T17:57:43.438Z,3.03
2019-05-25T18:00:10.399Z,2.83
2019-05-25T18:02:36.281Z,4.93
2019-05-25T18:05:05.989Z,3.37
2019-05-25T18:07:31.880Z,4.00
2019-05-25T18:09:57.748Z,4.40
2019-05-25T18:12:23.624Z,4.10
2019-05-25T18:14:49.493Z,5.27
2019-05-25T18:17:15.345Z,4.83
2019-05-25T18:19:41.205Z,4.50
2019-05-25T18:22:07.070Z,4.83
2019-05-25T18:24:32.895Z,5.27
2019-05-25T18:26:58.774Z,4.67
2019-05-25T18:29:24.611Z,5.90
2019-05-25T18:31:50.443Z,9.30
2019-05-25T18:34:21.974Z,6.37
2019-05-25T18:36:44.176Z,6.00
2019-05-25T18:39:10.155Z,5.07
2019-05-25T18:41:35.984Z,5.30
2019-05-25T18:44:01.961Z,4.83
2019-05-25T18:46:27.772Z,5.17
2019-05-25T18:48:53.633Z,4.40
2019-05-25T18:51:19.473Z,4.70
2019-05-25T18:53:45.482Z,4.77
2019-05-25T18:56:11.354Z,5.40
2019-05-25T18:58:37.236Z,5.30
2019-05-25T19:01:03.184Z,6.40
2019-05-25T19:03:29.047Z,6.37
2019-05-25T19:05:54.878Z,6.00
2019-05-25T19:08:20.755Z,5.67
2019-05-25T19:10:46.573Z,5.50
2019-05-25T19:13:12.429Z,5.50
2019-05-25T19:15:38.393Z,4.73
2019-05-25T19:18:04.253Z,5.37
2019-05-25T19:20:30.121Z,4.40
2019-05-25T19:22:55.971Z,5.13
2019-05-25T19:25:21.839Z,5.73
2019-05-25T19:27:47.683Z,5.93
2019-05-25T19:30:14.162Z,6.73
2019-05-25T19:32:40.050Z,7.20
2019-05-25T19:35:07.001Z,9.70
2019-05-25T19:37:32.993Z,8.90
2019-05-25T19:39:58.880Z,7.10
2019-05-25T19:42:24.879Z,6.30
2019-05-25T19:44:50.735Z,6.57
2019-05-25T19:47:16.708Z,9.23
2019-05-25T19:49:43.365Z,5.40
2019-05-25T19:52:09.432Z,6.37
2019-05-25T19:54:35.289Z,8.40
2019-05-25T19:57:01.539Z,7.37
2019-05-25T19:59:27.378Z,6.53
2019-05-25T20:01:53.244Z,6.17
2019-05-25T20:04:19.122Z,8.80
2019-05-25T20:06:45.025Z,6.93
2019-05-25T20:09:10.881Z,5.60
2019-05-25T20:11:36.732Z,6.93
2019-05-25T20:14:03.033Z,6.50
2019-05-25T20:16:28.908Z,7.13
2019-05-25T20:18:54.767Z,7.00
2019-05-25T20:21:20.717Z,5.87
2019-05-25T20:23:46.549Z,8.93
2019-05-25T20:26:12.413Z,6.40
2019-05-25T20:28:38.274Z,6.47
2019-05-25T20:31:04.222Z,7.90
2019-05-25T20:33:30.125Z,16.63
2019-05-25T20:35:56.220Z,7.60
2019-05-25T20:38:22.069Z,8.60
2019-05-25T20:40:48.027Z,8.33
2019-05-25T20:43:13.892Z,7.50
2019-05-25T20:45:39.764Z,8.63
2019-05-25T20:48:05.655Z,8.50
2019-05-25T20:50:31.501Z,6.87
2019-05-25T20:52:57.380Z,6.60
2019-05-25T20:55:23.281Z,7.40
2019-05-25T20:57:49.145Z,7.00
2019-05-25T21:00:15.298Z,6.93
2019-05-25T21:02:41.242Z,6.77
2019-05-25T21:05:07.278Z,6.30
2019-05-25T21:07:33.344Z,10.37
2019-05-25T21:09:59.213Z,6.83
2019-05-25T21:12:25.067Z,6.40
2019-05-25T21:14:50.929Z,8.00
2019-05-25T21:17:16.809Z,7.20
2019-05-25T21:19:42.645Z,6.83
2019-05-25T21:22:08.521Z,7.47
2019-05-25T21:24:34.347Z,8.90
2019-05-25T21:27:00.180Z,6.90
2019-05-25T21:29:26.119Z,7.63
2019-05-25T21:31:51.982Z,7.10
2019-05-25T21:34:20.728Z,7.47
2019-05-25T21:36:46.577Z,7.27
2019-05-25T21:39:12.414Z,7.93
2019-05-25T21:41:38.373Z,7.43
2019-05-25T21:44:04.239Z,7.87
2019-05-25T21:46:30.056Z,8.47
2019-05-25T21:48:55.905Z,9.67
2019-05-25T21:51:21.801Z,9.30
2019-05-25T21:53:47.674Z,8.33
2019-05-25T21:56:13.550Z,8.20
2019-05-25T21:58:39.401Z,7.80
2019-05-25T22:01:05.426Z,8.00
2019-05-25T22:03:31.407Z,7.80
2019-05-25T22:05:57.336Z,9.07
2019-05-25T22:08:23.189Z,8.43
2019-05-25T22:10:49.063Z,8.17
2019-05-25T22:13:26.832Z,8.97
2019-05-25T22:15:42.634Z,7.77
2019-05-25T22:18:08.510Z,7.93
2019-05-25T22:20:34.341Z,8.07
2019-05-25T22:23:00.171Z,8.40
2019-05-25T22:25:26.010Z,8.70
2019-05-25T22:27:51.836Z,7.10
2019-05-25T22:30:19.202Z,7.17
2019-05-25T22:32:45.887Z,8.73
2019-05-25T22:35:12.530Z,7.90
2019-05-25T22:37:38.358Z,7.70
2019-05-25T22:40:06.477Z,10.40
2019-05-25T22:42:32.428Z,10.30
2019-05-25T22:44:58.291Z,9.80
2019-05-25T22:47:24.125Z,11.23
2019-05-25T22:49:49.972Z,10.40
2019-05-25T22:52:15.822Z,11.13
2019-05-25T22:54:41.650Z,10.17
2019-05-25T22:57:07.516Z,9.87
2019-05-25T22:59:33.362Z,10.43
2019-05-25T23:01:59.209Z,10.83
2019-05-25T23:04:25.054Z,12.47
2019-05-25T23:06:57.845Z,16.70
2019-05-25T23:09:18.659Z,14.80
2019-05-25T23:11:44.525Z,13.50
2019-05-25T23:14:10.331Z,11.13
2019-05-25T23:16:36.179Z,10.93
2019-05-25T23:19:02.018Z,9.80
2019-05-25T23:21:27.866Z,10.00
2019-05-25T23:23:53.696Z,9.20
2019-05-25T23:26:19.565Z,9.77
2019-05-25T23:28:45.513Z,10.20
2019-05-25T23:31:11.366Z,9.80
2019-05-25T23:33:37.219Z,10.30
2019-05-25T23:36:03.081Z,9.80
2019-05-25T23:38:28.918Z,8.33
2019-05-25T23:40:54.745Z,8.47
2019-05-25T23:43:20.728Z,8.57
2019-05-25T23:45:47.062Z,8.53
2019-05-25T23:48:12.921Z,8.77
2019-05-25T23:50:38.753Z,8.73
2019-05-25T23:53:04.697Z,8.67
2019-05-25T23:55:30.526Z,8.57
2019-05-25T23:57:56.380Z,9.87
